Weather reports worldwide

Advertisment
Tarifa, Spain (8458): temperature & dewpoint: 13.03.2019 09:00:00 - 19.03.2019 09:00:00 (CET)Tarifa, Spain (8458): wind speed & gusts: 13.03.2019 09:00:00 - 19.03.2019 09:00:00 (CET)Tarifa, Spain (8458): wind direction: 13.03.2019 09:00:00 - 19.03.2019 09:00:00 (CET)Tarifa, Spain (8458): precipitation: 13.03.2019 09:00:00 - 19.03.2019 09:00:00 (CET)
Date & Time tt [°C] td [°C] ff [km/h] ff [kn] fx [km/h] fx [kn] dd rr [mm]
19.03.2019 09:00:00 15,4 13,1 23 12 35 19 E 0,0
19.03.2019 08:00:00 14,8 12,8 22 12 37 20 E 0,0
19.03.2019 07:00:00 14,8 13,2 20 11 37 20 E -
19.03.2019 06:00:00 14,8 13,2 19 10 35 19 E 0,0
19.03.2019 05:00:00 14,8 13,4 19 10 39 21 ENE 0,0
19.03.2019 04:00:00 14,6 13,2 20 11 38 20 E 0,0
19.03.2019 03:00:00 14,6 13,4 24 13 37 20 ENE 0,0
19.03.2019 02:00:00 14,5 13,3 22 12 36 19 ENE 0,0
19.03.2019 01:00:00 14,6 13,4 21 12 35 19 ENE -
19.03.2019 00:00:00 14,8 13,6 22 12 40 22 ENE 0,0
18.03.2019 23:00:00 14,7 13,3 24 13 42 23 ENE 0,0
18.03.2019 22:00:00 14,8 13,2 21 11 36 19 ENE 0,0
18.03.2019 21:00:00 15,2 13,4 24 13 43 23 ENE 0,0
18.03.2019 20:00:00 15,2 12,8 23 12 47 25 ENE 0,0
18.03.2019 19:00:00 15,9 13,1 24 13 41 22 ENE -
18.03.2019 18:00:00 16,9 13,3 23 12 42 23 ENE 0,0
18.03.2019 17:00:00 17,6 13,6 27 15 43 23 ENE 0,0
18.03.2019 16:00:00 17,8 13,9 25 13 42 23 E 0,0
18.03.2019 15:00:00 18,3 13,6 22 12 32 18 E 0,0
18.03.2019 14:00:00 17,9 12,1 6 3 16 9 SE 0,0
18.03.2019 13:00:00 16,5 11,4 8 5 17 9 SW -
18.03.2019 12:00:00 16,0 11,3 13 7 22 12 SW 0,0
18.03.2019 11:00:00 15,5 11,3 13 7 21 12 WSW 0,0
18.03.2019 10:00:00 13,9 9,9 14 7 20 11 W 0,0
18.03.2019 09:00:00 12,9 9,6 13 7 22 12 W 0,0
18.03.2019 08:00:00 12,6 9,0 6 3 16 8 W 0,0
18.03.2019 07:00:00 12,3 9,6 10 5 20 11 WNW -
18.03.2019 06:00:00 12,5 9,6 11 6 21 11 NW 0,0
18.03.2019 05:00:00 12,3 9,7 14 8 23 13 NW 0,0
18.03.2019 04:00:00 12,7 9,9 13 7 21 11 WNW 0,0
18.03.2019 03:00:00 13,6 10,5 7 4 12 6 W 0,0
18.03.2019 02:00:00 13,3 9,9 7 4 15 8 NNW 0,0
18.03.2019 01:00:00 14,0 10,0 8 4 19 10 N -
18.03.2019 00:00:00 14,7 9,6 6 4 15 8 NW 0,0
17.03.2019 23:00:00 15,8 9,4 9 5 14 8 W 0,0
17.03.2019 22:00:00 16,4 9,0 9 5 14 8 NW 0,0
17.03.2019 21:00:00 16,7 11,7 7 4 15 8 WNW 0,0
17.03.2019 20:00:00 17,0 12,7 12 6 19 10 WNW 0,0
17.03.2019 19:00:00 16,9 13,3 15 8 27 15 W -
17.03.2019 18:00:00 17,0 12,5 18 10 30 16 W 0,0
17.03.2019 17:00:00 17,1 13,9 8 5 21 11 WSW 0,0
17.03.2019 16:00:00 17,1 14,1 16 8 31 17 W 0,0
17.03.2019 15:00:00 16,7 13,9 19 11 31 17 W 0,0
17.03.2019 14:00:00 16,6 13,7 16 9 33 18 SW 0,0
17.03.2019 13:00:00 15,4 13,1 22 12 31 17 WSW -
17.03.2019 12:00:00 15,4 12,8 16 9 26 14 SW 0,0
17.03.2019 11:00:00 13,2 12,4 14 8 22 12 W 0,0
17.03.2019 10:00:00 13,5 12,2 11 6 18 10 NW 0,0
17.03.2019 09:00:00 12,4 11,0 8 4 16 8 NW 0,0
17.03.2019 08:00:00 12,7 12,2 13 7 20 11 W 0,0
17.03.2019 07:00:00 12,7 12,1 11 6 21 12 W -
17.03.2019 06:00:00 11,9 7,3 6 4 15 8 W 0,0
17.03.2019 05:00:00 12,4 6,7 12 6 17 9 NW 0,0
17.03.2019 04:00:00 12,8 6,5 11 6 14 8 NW 0,0
17.03.2019 03:00:00 9,0 5,3 9 5 11 6 N 0,0
17.03.2019 02:00:00 9,3 4,1 5 3 8 4 NNE 0,0
17.03.2019 01:00:00 9,9 3,0 2 1 6 4 NNE -
17.03.2019 00:00:00 13,0 1,9 4 2 13 7 N 0,0
16.03.2019 23:00:00 15,8 1,5 10 5 23 12 ENE 0,0
16.03.2019 22:00:00 16,2 1,9 16 9 26 14 E 0,0
16.03.2019 21:00:00 16,2 3,2 18 10 26 14 E 0,0
16.03.2019 20:00:00 16,4 3,8 18 10 31 17 ENE 0,0
16.03.2019 19:00:00 17,2 5,8 21 12 32 18 ENE -
16.03.2019 18:00:00 17,8 9,7 21 11 35 19 E 0,0
16.03.2019 17:00:00 18,3 12,3 21 12 36 20 E 0,0
16.03.2019 16:00:00 18,1 13,6 22 12 37 20 E 0,0
16.03.2019 15:00:00 17,5 13,5 25 14 40 22 E 0,0
16.03.2019 14:00:00 18,5 13,4 26 14 46 25 E 0,0
16.03.2019 13:00:00 17,9 11,7 31 17 51 27 E -
16.03.2019 12:00:00 17,6 9,9 32 17 51 27 E 0,0
16.03.2019 11:00:00 17,5 9,9 34 18 47 26 E 0,0
16.03.2019 10:00:00 17,2 8,4 28 15 44 24 E 0,0
16.03.2019 09:00:00 15,9 8,1 28 15 42 23 E 0,0
16.03.2019 08:00:00 15,1 3,6 27 15 59 32 E 0,0
16.03.2019 07:00:00 14,6 3,4 28 15 42 23 E -
16.03.2019 06:00:00 15,2 2,3 30 16 52 28 E 0,0
16.03.2019 05:00:00 15,5 2,7 32 17 47 26 E 0,0
16.03.2019 04:00:00 16,1 2,5 32 18 54 29 ENE 0,0
16.03.2019 03:00:00 16,1 2,9 29 16 48 26 ENE 0,0
16.03.2019 02:00:00 15,9 3,0 28 15 45 25 ENE 0,0
16.03.2019 01:00:00 15,9 4,3 29 16 44 24 ENE -
16.03.2019 00:00:00 14,7 10,2 30 16 49 27 ENE 0,0
15.03.2019 23:00:00 15,0 10,0 29 16 43 23 E 0,0
15.03.2019 22:00:00 14,5 11,8 24 13 39 21 E 0,0
15.03.2019 21:00:00 14,5 12,2 22 12 37 20 E 0,0
15.03.2019 20:00:00 14,6 12,6 24 13 40 21 ENE 0,0
15.03.2019 19:00:00 15,2 13,4 29 15 45 24 E -
15.03.2019 18:00:00 16,2 13,0 28 15 47 25 E 0,0
15.03.2019 17:00:00 17,0 13,4 30 16 47 26 E 0,0
15.03.2019 16:00:00 17,0 13,4 31 17 47 26 E 0,0
15.03.2019 15:00:00 17,1 13,5 34 19 49 27 E 0,0
15.03.2019 14:00:00 17,2 13,6 37 20 53 28 E 0,0
15.03.2019 13:00:00 17,4 13,6 31 17 52 28 E -
15.03.2019 12:00:00 16,5 13,1 39 21 59 32 ENE 0,0
15.03.2019 11:00:00 16,2 12,7 28 15 89 48 E 0,0
15.03.2019 10:00:00 15,8 12,7 26 14 46 25 ENE 0,0
15.03.2019 09:00:00 14,9 12,2 32 17 52 28 E 0,0
15.03.2019 08:00:00 13,8 11,9 32 18 52 28 E 0,0
15.03.2019 07:00:00 13,6 11,7 32 18 51 28 E -
15.03.2019 06:00:00 13,4 11,4 31 17 50 27 ENE 0,0
15.03.2019 05:00:00 13,4 11,8 34 19 53 28 ENE 0,0
15.03.2019 04:00:00 13,6 12,0 32 17 52 28 E 0,0
15.03.2019 03:00:00 13,9 12,1 26 14 45 24 ENE 0,0
15.03.2019 02:00:00 14,2 12,4 24 13 45 25 ENE 0,0
15.03.2019 01:00:00 14,1 12,5 28 15 47 25 ENE -
15.03.2019 00:00:00 14,2 12,5 29 16 48 26 ENE 0,0
14.03.2019 23:00:00 14,2 12,5 24 13 41 22 ENE 0,0
14.03.2019 22:00:00 14,2 12,7 23 13 40 22 E 0,0
14.03.2019 21:00:00 14,4 12,7 22 12 41 22 ENE 0,0
14.03.2019 20:00:00 14,9 13,1 26 14 39 21 E 0,0
14.03.2019 19:00:00 15,0 13,1 22 12 41 22 ENE -
14.03.2019 18:00:00 16,0 13,2 24 13 40 22 E 0,0
14.03.2019 17:00:00 16,5 12,8 25 14 45 25 ENE 0,0
14.03.2019 16:00:00 16,3 12,4 26 14 44 24 ENE 0,0
14.03.2019 15:00:00 17,6 13,2 24 13 48 26 ENE 0,0
14.03.2019 14:00:00 17,5 13,3 30 16 55 30 E 0,0
14.03.2019 13:00:00 17,6 13,6 29 15 69 37 ENE -
14.03.2019 12:00:00 16,5 13,6 26 14 50 27 ENE 0,0
14.03.2019 11:00:00 16,3 13,3 30 16 52 28 ENE 0,0
14.03.2019 10:00:00 15,6 12,7 29 16 49 27 ENE 0,0
14.03.2019 09:00:00 15,2 12,5 19 11 42 23 NE 0,0
14.03.2019 08:00:00 14,8 12,4 27 15 50 27 ENE 0,0
14.03.2019 07:00:00 14,8 12,3 27 15 45 24 ENE -
14.03.2019 06:00:00 14,8 12,8 26 14 44 24 ENE 0,0
14.03.2019 05:00:00 15,0 12,5 26 14 42 23 ENE 0,0
14.03.2019 04:00:00 14,8 12,4 15 8 24 13 E 0,0
14.03.2019 03:00:00 9,4 8,8 7 4 10 5 NNE 0,0
14.03.2019 02:00:00 9,7 8,9 6 4 8 5 NNE 0,0
14.03.2019 01:00:00 11,4 9,9 7 4 10 6 N -
14.03.2019 00:00:00 12,3 10,4 9 5 13 7 NNW 0,0
13.03.2019 23:00:00 12,9 9,9 6 4 19 11 NW 0,0
13.03.2019 22:00:00 13,9 10,2 14 8 23 12 SW 0,0
13.03.2019 21:00:00 14,0 11,1 13 7 26 14 SW 0,0
13.03.2019 20:00:00 14,0 10,6 17 9 30 16 W 0,0
13.03.2019 19:00:00 14,4 10,6 22 12 31 17 WSW -
13.03.2019 18:00:00 14,7 10,3 22 12 39 21 WSW 0,0
13.03.2019 17:00:00 15,2 10,8 25 14 40 22 W 0,0
13.03.2019 16:00:00 15,6 11,3 23 13 43 23 WSW 0,0
13.03.2019 15:00:00 - - - - - - - -
13.03.2019 14:00:00 16,1 12,1 27 15 38 20 WSW 0,0
13.03.2019 13:00:00 16,2 11,3 22 12 39 21 WSW -
13.03.2019 12:00:00 15,3 11,3 27 15 41 22 WSW 0,0
13.03.2019 11:00:00 14,2 10,8 20 11 33 18 W 0,0
13.03.2019 10:00:00 13,0 10,2 18 10 33 18 WNW 0,0
13.03.2019 09:00:00 12,6 10,2 15 8 32 18 NW 0,0

tt = temperature
td = dewpoint
ff = wind speed
fx = gusts
dd = wind direction
rr = precipitation

Next stations